sensor_id;sensor_type;location;lat;lon;timestamp;pressure;altitude;pressure_sealevel;temperature;humidity
11017;BME280;54687;50.800;6.772;2022-09-09T00:02:19;60853.94;;;-144.06;58.25
11017;BME280;54687;50.800;6.772;2022-09-09T00:04:54;60851.84;;;-144.06;58.22
11017;BME280;54687;50.800;6.772;2022-09-09T00:07:36;60809.94;;;-144.06;58.15
11017;BME280;54687;50.800;6.772;2022-09-09T00:10:16;60849.75;;;-144.06;58.05
11017;BME280;54687;50.800;6.772;2022-09-09T00:12:53;60816.22;;;-144.06;57.57
11017;BME280;54687;50.800;6.772;2022-09-09T00:15:24;60824.59;;;-144.06;57.42
11017;BME280;54687;50.800;6.772;2022-09-09T00:17:56;60822.50;;;-144.06;57.28
11017;BME280;54687;50.800;6.772;2022-09-09T00:20:30;60853.94;;;-144.06;57.20
11017;BME280;54687;50.800;6.772;2022-09-09T00:23:04;60822.50;;;-144.06;57.05
11017;BME280;54687;50.800;6.772;2022-09-09T00:25:41;60841.38;;;-144.06;57.07
11017;BME280;54687;50.800;6.772;2022-09-09T00:28:13;60818.31;;;-144.06;57.11
11017;BME280;54687;50.800;6.772;2022-09-09T00:30:41;60835.09;;;-144.06;57.09
11017;BME280;54687;50.800;6.772;2022-09-09T00:33:11;60845.56;;;-144.06;57.08
11017;BME280;54687;50.800;6.772;2022-09-09T00:35:44;60837.19;;;-144.06;57.10
11017;BME280;54687;50.800;6.772;2022-09-09T00:38:14;60856.03;;;-144.06;57.22
11017;BME280;54687;50.800;6.772;2022-09-09T00:40:46;60853.94;;;-144.06;57.55
11017;BME280;54687;50.800;6.772;2022-09-09T00:43:26;60870.72;;;-144.06;57.72
11017;BME280;54687;50.800;6.772;2022-09-09T00:46:10;60828.78;;;-144.06;57.71
11017;BME280;54687;50.800;6.772;2022-09-09T00:48:49;60883.28;;;-144.06;57.60
11017;BME280;54687;50.800;6.772;2022-09-09T00:51:25;60849.75;;;-144.06;57.72
11017;BME280;54687;50.800;6.772;2022-09-09T00:54:05;60843.47;;;-144.06;57.87
11017;BME280;54687;50.800;6.772;2022-09-09T00:56:38;60858.13;;;-144.06;57.87
11017;BME280;54687;50.800;6.772;2022-09-09T00:59:16;60864.44;;;-144.06;58.06
11017;BME280;54687;50.800;6.772;2022-09-09T01:01:51;60826.69;;;-144.06;58.25
11017;BME280;54687;50.800;6.772;2022-09-09T01:04:25;60830.88;;;-144.06;58.21
11017;BME280;54687;50.800;6.772;2022-09-09T01:07:02;60862.34;;;-144.06;58.26
11017;BME280;54687;50.800;6.772;2022-09-09T01:09:37;60837.19;;;-144.06;58.53
11017;BME280;54687;50.800;6.772;2022-09-09T01:12:12;60845.56;;;-144.06;58.72
11017;BME280;54687;50.800;6.772;2022-09-09T01:14:45;60868.63;;;-144.06;58.92
11017;BME280;54687;50.800;6.772;2022-09-09T01:17:17;60820.41;;;-144.06;59.00
11017;BME280;54687;50.800;6.772;2022-09-09T01:20:02;60870.72;;;-144.06;59.16
11017;BME280;54687;50.800;6.772;2022-09-09T01:22:35;60874.91;;;-144.06;59.16
11017;BME280;54687;50.800;6.772;2022-09-09T01:25:20;60866.53;;;-144.06;59.30
11017;BME280;54687;50.800;6.772;2022-09-09T01:27:51;60845.56;;;-144.06;59.59
11017;BME280;54687;50.800;6.772;2022-09-09T01:30:21;60856.03;;;-144.06;59.57
11017;BME280;54687;50.800;6.772;2022-09-09T01:32:50;60828.78;;;-144.06;59.74
11017;BME280;54687;50.800;6.772;2022-09-09T01:35:29;60862.34;;;-144.06;59.82
11017;BME280;54687;50.800;6.772;2022-09-09T01:37:59;60866.53;;;-144.06;59.77
11017;BME280;54687;50.800;6.772;2022-09-09T01:40:26;60833.00;;;-144.06;59.90
11017;BME280;54687;50.800;6.772;2022-09-09T01:42:54;60916.84;;;-144.06;60.04
11017;BME280;54687;50.800;6.772;2022-09-09T01:45:22;60879.09;;;-144.06;59.96
11017;BME280;54687;50.800;6.772;2022-09-09T01:47:50;60833.00;;;-144.06;59.81
11017;BME280;54687;50.800;6.772;2022-09-09T01:50:19;60853.94;;;-144.06;60.02
11017;BME280;54687;50.800;6.772;2022-09-09T01:52:48;60912.63;;;-144.06;59.94
11017;BME280;54687;50.800;6.772;2022-09-09T01:55:16;60946.19;;;-144.06;59.75
11017;BME280;54687;50.800;6.772;2022-09-09T01:57:51;60837.19;;;-144.06;59.42
11017;BME280;54687;50.800;6.772;2022-09-09T02:00:22;60866.53;;;-144.06;59.41
11017;BME280;54687;50.800;6.772;2022-09-09T02:02:58;60843.47;;;-144.06;59.48
11017;BME280;54687;50.800;6.772;2022-09-09T02:05:34;60866.53;;;-144.06;59.40
11017;BME280;54687;50.800;6.772;2022-09-09T02:08:06;60845.56;;;-144.06;59.13
11017;BME280;54687;50.800;6.772;2022-09-09T02:10:37;60864.44;;;-144.06;59.21
11017;BME280;54687;50.800;6.772;2022-09-09T02:13:11;60870.72;;;-144.06;59.26
11017;BME280;54687;50.800;6.772;2022-09-09T02:15:44;60845.56;;;-144.06;59.13
11017;BME280;54687;50.800;6.772;2022-09-09T02:18:15;60862.34;;;-144.06;59.30
11017;BME280;54687;50.800;6.772;2022-09-09T02:20:46;60881.19;;;-144.06;59.35
11017;BME280;54687;50.800;6.772;2022-09-09T02:23:14;60853.94;;;-144.06;59.33
11017;BME280;54687;50.800;6.772;2022-09-09T02:25:42;60853.94;;;-144.06;59.08
11017;BME280;54687;50.800;6.772;2022-09-09T02:28:13;60858.13;;;-144.06;59.05
11017;BME280;54687;50.800;6.772;2022-09-09T02:30:44;60862.34;;;-144.06;59.13
11017;BME280;54687;50.800;6.772;2022-09-09T02:33:14;60862.34;;;-144.06;59.15
11017;BME280;54687;50.800;6.772;2022-09-09T02:35:42;60883.28;;;-144.06;59.30
11017;BME280;54687;50.800;6.772;2022-09-09T02:38:12;60856.03;;;-144.06;59.21
11017;BME280;54687;50.800;6.772;2022-09-09T02:40:40;60849.75;;;-144.06;59.13
11017;BME280;54687;50.800;6.772;2022-09-09T02:43:06;60853.94;;;-144.06;59.03
11017;BME280;54687;50.800;6.772;2022-09-09T02:45:37;60849.75;;;-144.06;59.27
11017;BME280;54687;50.800;6.772;2022-09-09T02:48:14;60818.31;;;-144.06;59.25
11017;BME280;54687;50.800;6.772;2022-09-09T02:50:51;60833.00;;;-144.06;59.11
11017;BME280;54687;50.800;6.772;2022-09-09T02:53:24;60843.47;;;-144.06;59.01
11017;BME280;54687;50.800;6.772;2022-09-09T02:55:58;60807.84;;;-144.06;59.08
11017;BME280;54687;50.800;6.772;2022-09-09T02:58:27;60866.53;;;-144.06;58.91
11017;BME280;54687;50.800;6.772;2022-09-09T03:00:54;60874.91;;;-144.06;59.16
11017;BME280;54687;50.800;6.772;2022-09-09T03:03:24;60870.72;;;-144.06;59.06
11017;BME280;54687;50.800;6.772;2022-09-09T03:05:51;60839.28;;;-144.06;59.18
11017;BME280;54687;50.800;6.772;2022-09-09T03:08:18;60828.78;;;-144.06;59.11
11017;BME280;54687;50.800;6.772;2022-09-09T03:10:44;60864.44;;;-144.06;59.17
11017;BME280;54687;50.800;6.772;2022-09-09T03:13:11;60837.19;;;-144.06;59.17
11017;BME280;54687;50.800;6.772;2022-09-09T03:15:38;60816.22;;;-144.06;59.19
11017;BME280;54687;50.800;6.772;2022-09-09T03:18:04;60818.31;;;-144.06;58.87
11017;BME280;54687;50.800;6.772;2022-09-09T03:20:32;60835.09;;;-144.06;58.96
11017;BME280;54687;50.800;6.772;2022-09-09T03:23:00;60853.94;;;-144.06;58.96
11017;BME280;54687;50.800;6.772;2022-09-09T03:25:28;60851.84;;;-144.06;58.97
11017;BME280;54687;50.800;6.772;2022-09-09T03:27:55;60841.38;;;-144.06;59.02
11017;BME280;54687;50.800;6.772;2022-09-09T03:30:22;60866.53;;;-144.06;58.75
11017;BME280;54687;50.800;6.772;2022-09-09T03:32:49;60835.09;;;-144.06;58.69
11017;BME280;54687;50.800;6.772;2022-09-09T03:35:15;60858.13;;;-144.06;58.71
11017;BME280;54687;50.800;6.772;2022-09-09T03:37:44;60807.84;;;-144.06;58.71
11017;BME280;54687;50.800;6.772;2022-09-09T03:40:11;60837.19;;;-144.06;58.65
11017;BME280;54687;50.800;6.772;2022-09-09T03:42:37;60837.19;;;-144.06;58.54
11017;BME280;54687;50.800;6.772;2022-09-09T03:45:06;60866.53;;;-144.06;58.50
11017;BME280;54687;50.800;6.772;2022-09-09T03:47:34;60824.59;;;-144.06;58.57
11017;BME280;54687;50.800;6.772;2022-09-09T03:50:02;60862.34;;;-144.06;58.32
11017;BME280;54687;50.800;6.772;2022-09-09T03:52:29;60889.59;;;-144.06;58.25
11017;BME280;54687;50.800;6.772;2022-09-09T03:54:57;60812.03;;;-144.06;58.10
11017;BME280;54687;50.800;6.772;2022-09-09T03:57:24;60864.44;;;-144.06;58.08
11017;BME280;54687;50.800;6.772;2022-09-09T03:59:51;60807.84;;;-144.06;57.91
11017;BME280;54687;50.800;6.772;2022-09-09T04:02:17;60830.88;;;-144.06;57.86
11017;BME280;54687;50.800;6.772;2022-09-09T04:04:45;60858.13;;;-144.06;57.88
11017;BME280;54687;50.800;6.772;2022-09-09T04:07:11;60826.69;;;-144.06;57.80
11017;BME280;54687;50.800;6.772;2022-09-09T04:09:38;60824.59;;;-144.06;57.94
11017;BME280;54687;50.800;6.772;2022-09-09T04:12:06;60841.38;;;-144.06;57.76
11017;BME280;54687;50.800;6.772;2022-09-09T04:14:33;60841.38;;;-144.06;57.66
11017;BME280;54687;50.800;6.772;2022-09-09T04:17:00;60845.56;;;-144.06;57.74
11017;BME280;54687;50.800;6.772;2022-09-09T04:19:29;60837.19;;;-144.06;57.71
11017;BME280;54687;50.800;6.772;2022-09-09T04:21:56;60879.09;;;-144.06;57.73
11017;BME280;54687;50.800;6.772;2022-09-09T04:24:23;60870.72;;;-144.06;57.71
11017;BME280;54687;50.800;6.772;2022-09-09T04:26:52;60858.13;;;-144.06;57.80
11017;BME280;54687;50.800;6.772;2022-09-09T04:29:20;60818.31;;;-144.06;57.96
11017;BME280;54687;50.800;6.772;2022-09-09T04:31:47;60862.34;;;-144.06;57.88
11017;BME280;54687;50.800;6.772;2022-09-09T04:34:13;60816.22;;;-144.06;57.98
11017;BME280;54687;50.800;6.772;2022-09-09T04:36:40;60862.34;;;-144.06;57.93
11017;BME280;54687;50.800;6.772;2022-09-09T04:39:07;60839.28;;;-144.06;57.85
11017;BME280;54687;50.800;6.772;2022-09-09T04:41:34;60843.47;;;-144.06;57.83
11017;BME280;54687;50.800;6.772;2022-09-09T04:44:01;60870.72;;;-144.06;57.76
11017;BME280;54687;50.800;6.772;2022-09-09T04:46:30;60824.59;;;-144.06;57.79
11017;BME280;54687;50.800;6.772;2022-09-09T04:48:57;60862.34;;;-144.06;57.85
11017;BME280;54687;50.800;6.772;2022-09-09T04:51:23;60833.00;;;-144.06;57.81
11017;BME280;54687;50.800;6.772;2022-09-09T04:53:50;60830.88;;;-144.06;57.65
11017;BME280;54687;50.800;6.772;2022-09-09T04:56:19;60795.25;;;-144.06;57.64
11017;BME280;54687;50.800;6.772;2022-09-09T04:58:46;60784.78;;;-144.06;57.72
11017;BME280;54687;50.800;6.772;2022-09-09T05:01:15;60818.31;;;-144.06;57.49
11017;BME280;54687;50.800;6.772;2022-09-09T05:03:43;60833.00;;;-144.06;57.42
11017;BME280;54687;50.800;6.772;2022-09-09T05:06:12;60816.22;;;-144.06;57.24
11017;BME280;54687;50.800;6.772;2022-09-09T05:08:40;60820.41;;;-144.06;57.10
11017;BME280;54687;50.800;6.772;2022-09-09T05:11:13;60843.47;;;-144.06;57.07
11017;BME280;54687;50.800;6.772;2022-09-09T05:13:40;60820.41;;;-144.06;56.97
11017;BME280;54687;50.800;6.772;2022-09-09T05:16:07;60807.84;;;-144.06;56.94
11017;BME280;54687;50.800;6.772;2022-09-09T05:18:36;60862.34;;;-144.06;56.98
11017;BME280;54687;50.800;6.772;2022-09-09T05:21:04;60833.00;;;-144.06;56.82
11017;BME280;54687;50.800;6.772;2022-09-09T05:23:31;60791.06;;;-144.06;56.83
11017;BME280;54687;50.800;6.772;2022-09-09T05:25:59;60816.22;;;-144.06;56.80
11017;BME280;54687;50.800;6.772;2022-09-09T05:28:27;60849.75;;;-144.06;56.85
11017;BME280;54687;50.800;6.772;2022-09-09T05:30:58;60837.19;;;-144.06;56.73
11017;BME280;54687;50.800;6.772;2022-09-09T05:33:26;60841.38;;;-144.06;56.72
11017;BME280;54687;50.800;6.772;2022-09-09T05:35:57;60837.19;;;-144.06;56.46
11017;BME280;54687;50.800;6.772;2022-09-09T05:38:25;60874.91;;;-144.06;56.29
11017;BME280;54687;50.800;6.772;2022-09-09T05:40:53;60841.38;;;-144.06;56.19
11017;BME280;54687;50.800;6.772;2022-09-09T05:43:20;60853.94;;;-144.06;56.02
11017;BME280;54687;50.800;6.772;2022-09-09T05:45:47;60809.94;;;-144.06;55.62
11017;BME280;54687;50.800;6.772;2022-09-09T05:48:14;60845.56;;;-144.06;55.51
11017;BME280;54687;50.800;6.772;2022-09-09T05:50:41;60801.53;;;-144.06;55.44
11017;BME280;54687;50.800;6.772;2022-09-09T05:53:08;60816.22;;;-144.06;55.42
11017;BME280;54687;50.800;6.772;2022-09-09T05:55:36;60822.50;;;-144.06;55.39
11017;BME280;54687;50.800;6.772;2022-09-09T05:58:03;60828.78;;;-144.06;55.57
11017;BME280;54687;50.800;6.772;2022-09-09T06:00:30;60833.00;;;-144.06;55.57
11017;BME280;54687;50.800;6.772;2022-09-09T06:02:57;60793.16;;;-144.06;55.45
11017;BME280;54687;50.800;6.772;2022-09-09T06:05:23;60805.75;;;-144.06;55.32
11017;BME280;54687;50.800;6.772;2022-09-09T06:07:53;60837.19;;;-144.06;55.13
11017;BME280;54687;50.800;6.772;2022-09-09T06:10:20;60812.03;;;-144.06;55.12
11017;BME280;54687;50.800;6.772;2022-09-09T06:12:48;60824.59;;;-144.06;55.17
11017;BME280;54687;50.800;6.772;2022-09-09T06:15:15;60795.25;;;-144.06;55.13
11017;BME280;54687;50.800;6.772;2022-09-09T06:17:42;60803.66;;;-144.06;55.09
11017;BME280;54687;50.800;6.772;2022-09-09T06:20:10;60879.09;;;-144.06;55.15
11017;BME280;54687;50.800;6.772;2022-09-09T06:22:39;60791.06;;;-144.06;54.99
11017;BME280;54687;50.800;6.772;2022-09-09T06:25:08;60820.41;;;-144.06;55.01
11017;BME280;54687;50.800;6.772;2022-09-09T06:27:35;60799.44;;;-144.06;54.93
11017;BME280;54687;50.800;6.772;2022-09-09T06:30:03;60833.00;;;-144.06;55.04
11017;BME280;54687;50.800;6.772;2022-09-09T06:32:30;60795.25;;;-144.06;55.06
11017;BME280;54687;50.800;6.772;2022-09-09T06:34:59;60786.88;;;-144.06;55.19
11017;BME280;54687;50.800;6.772;2022-09-09T06:37:26;60805.75;;;-144.06;54.92
11017;BME280;54687;50.800;6.772;2022-09-09T06:39:53;60814.13;;;-144.06;54.88
11017;BME280;54687;50.800;6.772;2022-09-09T06:42:20;60803.66;;;-144.06;54.44
11017;BME280;54687;50.800;6.772;2022-09-09T06:44:46;60807.84;;;-144.06;53.86
11017;BME280;54687;50.800;6.772;2022-09-09T06:47:15;60812.03;;;-144.06;53.98
11017;BME280;54687;50.800;6.772;2022-09-09T06:49:41;60795.25;;;-144.06;53.29
11017;BME280;54687;50.800;6.772;2022-09-09T06:52:09;60843.47;;;-144.06;53.10
11017;BME280;54687;50.800;6.772;2022-09-09T06:54:35;60837.19;;;-144.06;52.96
11017;BME280;54687;50.800;6.772;2022-09-09T06:57:02;60822.50;;;-144.06;52.74
11017;BME280;54687;50.800;6.772;2022-09-09T06:59:32;60820.41;;;-144.06;52.66
11017;BME280;54687;50.800;6.772;2022-09-09T07:01:59;60799.44;;;-144.06;52.52
11017;BME280;54687;50.800;6.772;2022-09-09T07:04:28;60799.44;;;-144.06;52.38
11017;BME280;54687;50.800;6.772;2022-09-09T07:06:54;60784.78;;;-144.06;52.26
11017;BME280;54687;50.800;6.772;2022-09-09T07:09:21;60818.31;;;-144.06;52.15
11017;BME280;54687;50.800;6.772;2022-09-09T07:11:51;60816.22;;;-144.06;52.25
11017;BME280;54687;50.800;6.772;2022-09-09T07:14:19;60765.91;;;-144.06;51.98
11017;BME280;54687;50.800;6.772;2022-09-09T07:16:46;60791.06;;;-144.06;51.75
11017;BME280;54687;50.800;6.772;2022-09-09T07:19:13;60765.91;;;-144.06;51.70
11017;BME280;54687;50.800;6.772;2022-09-09T07:21:43;60788.97;;;-144.06;51.13
11017;BME280;54687;50.800;6.772;2022-09-09T07:24:10;60784.78;;;-144.06;50.65
11017;BME280;54687;50.800;6.772;2022-09-09T07:26:38;60788.97;;;-144.06;50.78
11017;BME280;54687;50.800;6.772;2022-09-09T07:29:05;60803.66;;;-144.06;50.89
11017;BME280;54687;50.800;6.772;2022-09-09T07:31:33;60778.50;;;-144.06;50.42
11017;BME280;54687;50.800;6.772;2022-09-09T07:34:01;60778.50;;;-144.06;49.73
11017;BME280;54687;50.800;6.772;2022-09-09T07:36:29;60782.69;;;-144.06;49.81
11017;BME280;54687;50.800;6.772;2022-09-09T07:38:59;60795.25;;;-144.06;49.02
11017;BME280;54687;50.800;6.772;2022-09-09T07:41:28;60778.50;;;-144.06;49.29
11017;BME280;54687;50.800;6.772;2022-09-09T07:43:55;60770.09;;;-144.06;48.78
11017;BME280;54687;50.800;6.772;2022-09-09T07:46:25;60730.28;;;-144.06;48.69
11017;BME280;54687;50.800;6.772;2022-09-09T07:48:54;60761.72;;;-144.06;48.48
11017;BME280;54687;50.800;6.772;2022-09-09T07:51:23;60770.09;;;-144.06;47.81
11017;BME280;54687;50.800;6.772;2022-09-09T07:53:52;60724.00;;;-144.06;47.54
11017;BME280;54687;50.800;6.772;2022-09-09T07:56:21;60763.81;;;-144.06;47.28
11017;BME280;54687;50.800;6.772;2022-09-09T07:58:49;60732.38;;;-144.06;46.57
11017;BME280;54687;50.800;6.772;2022-09-09T08:01:18;60740.75;;;-144.06;45.34
11017;BME280;54687;50.800;6.772;2022-09-09T08:03:47;60711.41;;;-144.06;44.63
11017;BME280;54687;50.800;6.772;2022-09-09T08:06:14;60749.16;;;-144.06;44.98
11017;BME280;54687;50.800;6.772;2022-09-09T08:08:40;60730.28;;;-144.06;45.22
11017;BME280;54687;50.800;6.772;2022-09-09T08:11:10;60719.81;;;-144.06;45.42
11017;BME280;54687;50.800;6.772;2022-09-09T08:13:39;60747.06;;;-144.06;45.03
11017;BME280;54687;50.800;6.772;2022-09-09T08:16:07;60732.38;;;-144.06;45.44
11017;BME280;54687;50.800;6.772;2022-09-09T08:18:34;60772.19;;;-144.06;45.19
11017;BME280;54687;50.800;6.772;2022-09-09T08:21:06;60755.44;;;-144.06;45.62
11017;BME280;54687;50.800;6.772;2022-09-09T08:23:34;60759.63;;;-144.06;45.77
11017;BME280;54687;50.800;6.772;2022-09-09T08:26:05;60740.75;;;-144.06;45.43
11017;BME280;54687;50.800;6.772;2022-09-09T08:28:32;60707.22;;;-144.06;44.77
11017;BME280;54687;50.800;6.772;2022-09-09T08:31:09;60715.59;;;-144.06;44.82
11017;BME280;54687;50.800;6.772;2022-09-09T08:33:36;60707.22;;;-144.06;44.60
11017;BME280;54687;50.800;6.772;2022-09-09T08:36:04;60732.38;;;-144.06;44.88
11017;BME280;54687;50.800;6.772;2022-09-09T08:38:31;60717.72;;;-144.06;43.51
11017;BME280;54687;50.800;6.772;2022-09-09T08:41:07;60688.38;;;-144.06;43.28
11017;BME280;54687;50.800;6.772;2022-09-09T08:43:37;60652.72;;;-144.06;42.30
11017;BME280;54687;50.800;6.772;2022-09-09T08:46:11;60682.06;;;-144.06;42.22
11017;BME280;54687;50.800;6.772;2022-09-09T08:48:47;60656.91;;;-144.06;41.94
11017;BME280;54687;50.800;6.772;2022-09-09T08:51:20;60694.66;;;-144.06;42.31
11017;BME280;54687;50.800;6.772;2022-09-09T08:53:49;60665.31;;;-144.06;42.02
11017;BME280;54687;50.800;6.772;2022-09-09T08:56:20;60633.88;;;-144.06;41.60
11017;BME280;54687;50.800;6.772;2022-09-09T08:58:49;60740.75;;;-144.06;41.58
11017;BME280;54687;50.800;6.772;2022-09-09T09:01:29;60648.53;;;-144.06;41.57
11017;BME280;54687;50.800;6.772;2022-09-09T09:04:07;60677.88;;;-144.06;41.41
11017;BME280;54687;50.800;6.772;2022-09-09T09:06:48;60631.78;;;-144.06;41.50
11017;BME280;54687;50.800;6.772;2022-09-09T09:09:21;60644.34;;;-144.06;41.81
11017;BME280;54687;50.800;6.772;2022-09-09T09:11:53;60642.25;;;-144.06;41.41
11017;BME280;54687;50.800;6.772;2022-09-09T09:14:22;60638.06;;;-144.06;41.72
11017;BME280;54687;50.800;6.772;2022-09-09T09:16:53;60682.06;;;-144.06;41.27
11017;BME280;54687;50.800;6.772;2022-09-09T09:19:23;60648.53;;;-144.06;41.64
11017;BME280;54687;50.800;6.772;2022-09-09T09:21:55;60619.19;;;-144.06;41.50
11017;BME280;54687;50.800;6.772;2022-09-09T09:24:29;60669.50;;;-144.06;41.18
11017;BME280;54687;50.800;6.772;2022-09-09T09:27:00;60635.97;;;-144.06;41.48
11017;BME280;54687;50.800;6.772;2022-09-09T09:29:34;60675.78;;;-144.06;41.47
11017;BME280;54687;50.800;6.772;2022-09-09T09:32:03;60617.09;;;-144.06;41.82
11017;BME280;54687;50.800;6.772;2022-09-09T09:34:30;60652.72;;;-144.06;40.81
11017;BME280;54687;50.800;6.772;2022-09-09T09:36:57;60627.56;;;-144.06;40.95
11017;BME280;54687;50.800;6.772;2022-09-09T09:39:29;60635.97;;;-144.06;39.61
11017;BME280;54687;50.800;6.772;2022-09-09T09:41:56;60633.88;;;-144.06;40.30
11017;BME280;54687;50.800;6.772;2022-09-09T09:44:27;60627.56;;;-144.06;40.32
11017;BME280;54687;50.800;6.772;2022-09-09T09:47:07;60589.84;;;-144.06;39.78
11017;BME280;54687;50.800;6.772;2022-09-09T09:49:34;60646.44;;;-144.06;39.73
11017;BME280;54687;50.800;6.772;2022-09-09T09:52:01;60600.34;;;-144.06;39.51
11017;BME280;54687;50.800;6.772;2022-09-09T09:54:29;60573.09;;;-144.06;39.51
11017;BME280;54687;50.800;6.772;2022-09-09T09:57:08;60606.63;;;-144.06;39.21
11017;BME280;54687;50.800;6.772;2022-09-09T09:59:36;60635.97;;;-144.06;39.56
11017;BME280;54687;50.800;6.772;2022-09-09T10:02:18;60656.91;;;-144.06;39.88
11017;BME280;54687;50.800;6.772;2022-09-09T10:05:00;60669.50;;;-144.06;40.11
11017;BME280;54687;50.800;6.772;2022-09-09T10:07:28;60642.25;;;-144.06;40.31
11017;BME280;54687;50.800;6.772;2022-09-09T10:09:56;60640.16;;;-144.06;40.10
11017;BME280;54687;50.800;6.772;2022-09-09T10:12:35;60615.00;;;-144.06;39.64
11017;BME280;54687;50.800;6.772;2022-09-09T10:15:21;60640.16;;;-144.06;39.73
11017;BME280;54687;50.800;6.772;2022-09-09T10:17:58;60648.53;;;-144.06;39.52
11017;BME280;54687;50.800;6.772;2022-09-09T10:20:35;60648.53;;;-144.06;39.61
11017;BME280;54687;50.800;6.772;2022-09-09T10:23:18;60629.69;;;-144.06;38.68
11017;BME280;54687;50.800;6.772;2022-09-09T10:26:01;60575.19;;;-144.06;39.17
11017;BME280;54687;50.800;6.772;2022-09-09T10:28:48;60556.31;;;-144.06;38.72
11017;BME280;54687;50.800;6.772;2022-09-09T10:31:25;60594.03;;;-144.06;38.74
11017;BME280;54687;50.800;6.772;2022-09-09T10:34:04;60594.03;;;-144.06;39.34
11017;BME280;54687;50.800;6.772;2022-09-09T10:36:32;60610.81;;;-144.06;39.42
11017;BME280;54687;50.800;6.772;2022-09-09T10:39:03;60612.91;;;-144.06;39.63
11017;BME280;54687;50.800;6.772;2022-09-09T10:41:45;60568.88;;;-144.06;39.75
11017;BME280;54687;50.800;6.772;2022-09-09T10:44:24;60640.16;;;-144.06;39.67
11017;BME280;54687;50.800;6.772;2022-09-09T10:47:10;60610.81;;;-144.06;39.07
11017;BME280;54687;50.800;6.772;2022-09-09T10:49:57;60623.38;;;-144.06;38.68
11017;BME280;54687;50.800;6.772;2022-09-09T10:52:32;60573.09;;;-144.06;38.11
11017;BME280;54687;50.800;6.772;2022-09-09T10:55:08;60640.16;;;-144.06;38.11
11017;BME280;54687;50.800;6.772;2022-09-09T10:57:39;60602.44;;;-144.06;38.94
11017;BME280;54687;50.800;6.772;2022-09-09T11:00:15;60610.81;;;-144.06;38.44
11017;BME280;54687;50.800;6.772;2022-09-09T11:02:43;60615.00;;;-144.06;38.26
11017;BME280;54687;50.800;6.772;2022-09-09T11:05:17;60596.13;;;-144.06;38.32
11017;BME280;54687;50.800;6.772;2022-09-09T11:07:48;60587.75;;;-144.06;38.41
11017;BME280;54687;50.800;6.772;2022-09-09T11:10:24;60600.34;;;-144.06;38.17
11017;BME280;54687;50.800;6.772;2022-09-09T11:12:54;60581.47;;;-144.06;38.63
11017;BME280;54687;50.800;6.772;2022-09-09T11:15:29;60591.94;;;-144.06;38.29
11017;BME280;54687;50.800;6.772;2022-09-09T11:18:00;60594.03;;;-144.06;38.16
11017;BME280;54687;50.800;6.772;2022-09-09T11:20:29;60598.22;;;-144.06;38.39
11017;BME280;54687;50.800;6.772;2022-09-09T11:23:00;60635.97;;;-144.06;37.72
11017;BME280;54687;50.800;6.772;2022-09-09T11:25:32;60619.19;;;-144.06;38.29
11017;BME280;54687;50.800;6.772;2022-09-09T11:28:21;60589.84;;;-144.06;37.46
11017;BME280;54687;50.800;6.772;2022-09-09T11:31:03;60587.75;;;-144.06;37.62
11017;BME280;54687;50.800;6.772;2022-09-09T11:33:54;60598.22;;;-144.06;37.33
11017;BME280;54687;50.800;6.772;2022-09-09T11:36:35;60621.28;;;-144.06;37.50
11017;BME280;54687;50.800;6.772;2022-09-09T11:39:18;60602.44;;;-144.06;37.63
11017;BME280;54687;50.800;6.772;2022-09-09T11:41:50;60594.03;;;-144.06;36.82
11017;BME280;54687;50.800;6.772;2022-09-09T11:44:21;60604.53;;;-144.06;37.31
11017;BME280;54687;50.800;6.772;2022-09-09T11:46:51;60594.03;;;-144.06;37.25
11017;BME280;54687;50.800;6.772;2022-09-09T11:49:29;60598.22;;;-144.06;37.77
11017;BME280;54687;50.800;6.772;2022-09-09T11:51:58;60615.00;;;-144.06;37.57
11017;BME280;54687;50.800;6.772;2022-09-09T11:54:29;60585.66;;;-144.06;37.30
11017;BME280;54687;50.800;6.772;2022-09-09T11:56:56;60606.63;;;-144.06;37.45
11017;BME280;54687;50.800;6.772;2022-09-09T11:59:25;60623.38;;;-144.06;37.60
11017;BME280;54687;50.800;6.772;2022-09-09T12:01:55;60529.06;;;-144.06;37.96
11017;BME280;54687;50.800;6.772;2022-09-09T12:04:35;60594.03;;;-144.06;37.43
11017;BME280;54687;50.800;6.772;2022-09-09T12:07:27;60581.47;;;-144.06;37.31
11017;BME280;54687;50.800;6.772;2022-09-09T12:09:59;60585.66;;;-144.06;36.79
11017;BME280;54687;50.800;6.772;2022-09-09T12:12:31;60566.78;;;-144.06;37.11
11017;BME280;54687;50.800;6.772;2022-09-09T12:15:18;60596.13;;;-144.06;37.13
11017;BME280;54687;50.800;6.772;2022-09-09T12:17:47;60602.44;;;-144.06;37.18
11017;BME280;54687;50.800;6.772;2022-09-09T12:20:17;60547.94;;;-144.06;37.58
11017;BME280;54687;50.800;6.772;2022-09-09T12:22:54;60610.81;;;-144.06;37.72
11017;BME280;54687;50.800;6.772;2022-09-09T12:25:30;60606.63;;;-144.06;37.98
11017;BME280;54687;50.800;6.772;2022-09-09T12:28:08;60581.47;;;-144.06;38.49
11017;BME280;54687;50.800;6.772;2022-09-09T12:30:41;60589.84;;;-144.06;38.29
11017;BME280;54687;50.800;6.772;2022-09-09T12:33:15;60648.53;;;-144.06;38.43
11017;BME280;54687;50.800;6.772;2022-09-09T12:35:45;60600.34;;;-144.06;37.92
11017;BME280;54687;50.800;6.772;2022-09-09T12:38:19;60594.03;;;-144.06;38.21
11017;BME280;54687;50.800;6.772;2022-09-09T12:40:54;60573.09;;;-144.06;37.45
11017;BME280;54687;50.800;6.772;2022-09-09T12:43:24;60550.03;;;-144.06;37.14
11017;BME280;54687;50.800;6.772;2022-09-09T12:45:55;60547.94;;;-144.06;37.41
11017;BME280;54687;50.800;6.772;2022-09-09T12:48:29;60573.09;;;-144.06;37.38
11017;BME280;54687;50.800;6.772;2022-09-09T12:50:57;60552.13;;;-144.06;36.99
11017;BME280;54687;50.800;6.772;2022-09-09T12:53:29;60522.78;;;-144.06;36.92
11017;BME280;54687;50.800;6.772;2022-09-09T12:56:01;60564.69;;;-144.06;37.19
11017;BME280;54687;50.800;6.772;2022-09-09T12:58:29;60556.31;;;-144.06;37.20
11017;BME280;54687;50.800;6.772;2022-09-09T13:00:59;60623.38;;;-144.06;37.50